createdAt,value
2023-04-07T00:02:02.806Z,8.93
2023-04-07T00:04:29.579Z,8.83
2023-04-07T00:06:56.232Z,8.71
2023-04-07T00:09:22.958Z,8.91
2023-04-07T00:11:49.600Z,8.71
2023-04-07T00:14:16.206Z,8.75
2023-04-07T00:16:42.937Z,8.73
2023-04-07T00:19:09.473Z,8.74
2023-04-07T00:21:36.165Z,9.07
2023-04-07T00:24:02.894Z,8.92
2023-04-07T00:26:31.654Z,9.02
2023-04-07T00:28:59.128Z,9.05
2023-04-07T00:31:26.013Z,9.03
2023-04-07T00:33:52.992Z,9.08
2023-04-07T00:36:19.941Z,9.18
2023-04-07T00:38:46.533Z,9.35
2023-04-07T00:41:13.325Z,9.26
2023-04-07T00:43:40.065Z,9.34
2023-04-07T00:46:06.868Z,9.32
2023-04-07T00:48:33.730Z,9.46
2023-04-07T00:51:00.357Z,9.54
2023-04-07T00:53:26.906Z,9.41
2023-04-07T00:55:53.712Z,9.48
2023-04-07T00:58:20.500Z,9.59
2023-04-07T01:00:59.301Z,9.68
2023-04-07T01:03:33.910Z,9.51
2023-04-07T01:06:06.871Z,9.53
2023-04-07T01:08:38.534Z,9.20
2023-04-07T01:11:05.362Z,9.38
2023-04-07T01:13:38.719Z,9.13
2023-04-07T01:16:12.105Z,8.98
2023-04-07T01:18:40.466Z,8.84
2023-04-07T01:21:14.018Z,8.76
2023-04-07T01:23:55.615Z,8.78
2023-04-07T01:26:27.917Z,8.73
2023-04-07T01:29:07.566Z,8.57
2023-04-07T01:31:37.316Z,8.45
2023-04-07T01:34:04.357Z,8.44
2023-04-07T01:36:33.735Z,8.34
2023-04-07T01:39:01.352Z,8.17
2023-04-07T01:41:30.033Z,8.20
2023-04-07T01:43:57.704Z,8.63
2023-04-07T01:46:24.893Z,8.38
2023-04-07T01:48:52.485Z,8.19
2023-04-07T01:51:21.789Z,7.96
2023-04-07T01:53:49.703Z,8.01
2023-04-07T01:56:16.874Z,7.73
2023-04-07T01:58:43.463Z,8.10
2023-04-07T02:01:10.314Z,8.01
2023-04-07T02:03:56.182Z,7.83
2023-04-07T02:06:32.185Z,7.92
2023-04-07T02:09:07.933Z,8.05
2023-04-07T02:11:36.201Z,7.96
2023-04-07T02:14:06.437Z,7.79
2023-04-07T02:16:33.516Z,7.58
2023-04-07T02:19:00.254Z,7.67
2023-04-07T02:21:27.698Z,7.53
2023-04-07T02:23:54.358Z,7.52
2023-04-07T02:26:21.497Z,7.66
2023-04-07T02:28:48.126Z,7.74
2023-04-07T02:31:14.871Z,7.85
2023-04-07T02:33:41.508Z,8.05
2023-04-07T02:36:08.178Z,8.02
2023-04-07T02:38:34.741Z,7.89
2023-04-07T02:41:01.453Z,7.82
2023-04-07T02:43:27.975Z,7.74
2023-04-07T02:45:55.177Z,7.61
2023-04-07T02:48:21.792Z,7.78
2023-04-07T02:50:48.365Z,7.88
2023-04-07T02:53:14.983Z,7.83
2023-04-07T02:55:41.895Z,7.70
2023-04-07T02:58:08.474Z,7.93
2023-04-07T03:00:35.066Z,7.91
2023-04-07T03:03:02.017Z,8.10
2023-04-07T03:05:28.737Z,7.96
2023-04-07T03:07:55.392Z,7.70
2023-04-07T03:10:22.002Z,7.24
2023-04-07T03:12:48.948Z,7.67
2023-04-07T03:15:17.092Z,7.93
2023-04-07T03:17:45.926Z,7.35
2023-04-07T03:20:12.569Z,7.55
2023-04-07T03:22:39.162Z,7.86
2023-04-07T03:25:05.948Z,7.67
2023-04-07T03:27:32.490Z,7.60
2023-04-07T03:29:59.115Z,7.64
2023-04-07T03:32:26.018Z,7.66
2023-04-07T03:34:52.762Z,7.55
2023-04-07T03:37:19.338Z,7.54
2023-04-07T03:39:45.905Z,7.61
2023-04-07T03:42:13.008Z,7.70
2023-04-07T03:44:39.606Z,7.92
2023-04-07T03:47:06.181Z,7.98
2023-04-07T03:49:33.355Z,7.93
2023-04-07T03:51:59.868Z,7.82
2023-04-07T03:54:26.698Z,7.75
2023-04-07T03:56:53.344Z,7.52
2023-04-07T03:59:19.890Z,7.69
2023-04-07T04:01:46.497Z,8.02
2023-04-07T04:04:13.232Z,7.79
2023-04-07T04:06:39.831Z,7.71
2023-04-07T04:09:06.453Z,7.90
2023-04-07T04:11:33.006Z,8.03
2023-04-07T04:13:59.516Z,8.01
2023-04-07T04:16:26.301Z,7.83
2023-04-07T04:18:52.961Z,7.30
2023-04-07T04:21:19.532Z,7.57
2023-04-07T04:23:46.020Z,7.82
2023-04-07T04:26:12.732Z,7.90
2023-04-07T04:28:39.329Z,7.63
2023-04-07T04:31:06.104Z,7.74
2023-04-07T04:33:32.961Z,7.83
2023-04-07T04:35:59.622Z,7.94
2023-04-07T04:38:26.205Z,7.80
2023-04-07T04:40:52.778Z,7.86
2023-04-07T04:43:19.332Z,7.90
2023-04-07T04:45:46.211Z,7.68
2023-04-07T04:48:12.755Z,7.46
2023-04-07T04:50:39.274Z,7.63
2023-04-07T04:53:05.792Z,7.65
2023-04-07T04:55:32.323Z,7.71
2023-04-07T04:57:59.058Z,7.79
2023-04-07T05:00:25.586Z,7.78
2023-04-07T05:02:52.238Z,7.71
2023-04-07T05:05:19.185Z,7.89
2023-04-07T05:07:46.021Z,7.92
2023-04-07T05:10:12.835Z,8.16
2023-04-07T05:12:39.340Z,7.90
2023-04-07T05:15:06.661Z,7.81
2023-04-07T05:17:33.268Z,7.87
2023-04-07T05:19:59.901Z,7.80
2023-04-07T05:22:26.504Z,8.09
2023-04-07T05:24:53.083Z,8.11
2023-04-07T05:27:19.605Z,8.17
2023-04-07T05:29:46.137Z,8.23
2023-04-07T05:32:12.650Z,8.37
2023-04-07T05:34:40.122Z,8.26
2023-04-07T05:37:06.727Z,8.32
2023-04-07T05:39:33.273Z,8.30
2023-04-07T05:41:59.800Z,8.43
2023-04-07T05:44:26.341Z,8.34
2023-04-07T05:46:52.965Z,8.11
2023-04-07T05:49:20.467Z,8.22
2023-04-07T05:51:48.730Z,8.26
2023-04-07T05:54:16.037Z,8.01
2023-04-07T05:56:42.723Z,8.03
2023-04-07T05:59:09.988Z,7.97
2023-04-07T06:01:36.603Z,8.02
2023-04-07T06:04:04.284Z,7.88
2023-04-07T06:06:31.380Z,7.89
2023-04-07T06:08:58.033Z,7.91
2023-04-07T06:11:27.406Z,7.94
2023-04-07T06:13:54.201Z,7.76
2023-04-07T06:16:20.827Z,8.12
2023-04-07T06:18:47.657Z,7.97
2023-04-07T06:21:14.232Z,8.23
2023-04-07T06:23:40.774Z,8.12
2023-04-07T06:26:11.321Z,8.04
2023-04-07T06:28:38.117Z,8.00
2023-04-07T06:31:05.214Z,8.04
2023-04-07T06:33:31.780Z,8.09
2023-04-07T06:35:58.480Z,8.16
2023-04-07T06:38:25.286Z,8.16
2023-04-07T06:40:52.134Z,8.27
2023-04-07T06:43:18.722Z,8.14
2023-04-07T06:45:45.589Z,8.36
2023-04-07T06:48:12.169Z,7.90
2023-04-07T06:50:38.768Z,7.61
2023-04-07T06:53:06.036Z,7.34
2023-04-07T06:55:32.676Z,6.65
2023-04-07T06:57:59.252Z,6.20
2023-04-07T07:00:27.088Z,6.85
2023-04-07T07:02:53.777Z,6.04
2023-04-07T07:05:20.580Z,6.07
2023-04-07T07:07:47.205Z,5.76
2023-04-07T07:10:13.825Z,5.79
2023-04-07T07:12:40.351Z,6.04
2023-04-07T07:15:07.947Z,5.94
2023-04-07T07:17:34.663Z,5.96
2023-04-07T07:20:01.283Z,6.12
2023-04-07T07:22:27.919Z,6.07
2023-04-07T07:24:54.607Z,5.93
2023-04-07T07:27:21.203Z,6.11
2023-04-07T07:29:47.724Z,6.16
2023-04-07T07:32:14.230Z,6.32
2023-04-07T07:34:40.959Z,6.31
2023-04-07T07:37:07.640Z,6.87
2023-04-07T07:39:34.212Z,7.17
2023-04-07T07:42:01.491Z,7.05
2023-04-07T07:44:28.471Z,7.05
2023-04-07T07:46:55.689Z,6.72
2023-04-07T07:49:22.422Z,6.47
2023-04-07T07:51:49.006Z,7.25
2023-04-07T07:54:15.703Z,7.62
2023-04-07T07:56:42.322Z,7.27
2023-04-07T07:59:08.859Z,7.05
2023-04-07T08:01:35.526Z,7.35
2023-04-07T08:04:02.433Z,7.03
2023-04-07T08:06:29.376Z,7.19
2023-04-07T08:08:56.038Z,7.68
2023-04-07T08:11:23.384Z,7.92
2023-04-07T08:13:50.042Z,7.19
2023-04-07T08:16:16.989Z,7.11
2023-04-07T08:18:43.781Z,7.03
2023-04-07T08:21:10.363Z,7.19
2023-04-07T08:23:37.119Z,7.47
2023-04-07T08:26:03.857Z,8.05
2023-04-07T08:28:30.581Z,8.47
2023-04-07T08:30:57.127Z,8.41
2023-04-07T08:33:23.853Z,8.10
2023-04-07T08:35:50.873Z,8.27
2023-04-07T08:38:17.753Z,8.13
2023-04-07T08:40:44.414Z,8.47
2023-04-07T08:43:12.876Z,8.65
2023-04-07T08:45:42.261Z,8.77
2023-04-07T08:48:17.783Z,8.82
2023-04-07T08:50:46.296Z,8.65
2023-04-07T08:53:17.068Z,7.53
2023-04-07T08:55:43.704Z,7.78
2023-04-07T08:58:13.690Z,7.74
2023-04-07T09:00:45.814Z,7.71
2023-04-07T09:03:13.116Z,7.76
2023-04-07T09:05:40.589Z,8.13
2023-04-07T09:08:07.133Z,8.33
2023-04-07T09:10:33.677Z,8.89
2023-04-07T09:13:00.313Z,9.23
2023-04-07T09:15:31.489Z,9.26
2023-04-07T09:17:59.360Z,8.54
2023-04-07T09:20:25.975Z,8.42
2023-04-07T09:22:52.743Z,9.05
2023-04-07T09:25:28.202Z,8.28
2023-04-07T09:28:05.301Z,8.92
2023-04-07T09:30:33.637Z,9.44
2023-04-07T09:33:01.661Z,9.09
2023-04-07T09:35:29.000Z,9.94
2023-04-07T09:38:06.481Z,10.28
2023-04-07T09:40:33.243Z,11.04
2023-04-07T09:43:00.584Z,10.51
2023-04-07T09:45:34.615Z,10.63
2023-04-07T09:48:07.855Z,10.10
2023-04-07T09:50:49.407Z,9.64
2023-04-07T09:53:17.258Z,10.34
2023-04-07T09:55:44.244Z,10.30
2023-04-07T09:58:17.000Z,10.83
2023-04-07T10:00:44.489Z,10.40
2023-04-07T10:03:11.313Z,10.12
2023-04-07T10:05:38.945Z,10.28
2023-04-07T10:08:06.686Z,10.41
2023-04-07T10:10:35.516Z,9.84
2023-04-07T10:13:05.198Z,9.70
2023-04-07T10:15:31.870Z,10.36
2023-04-07T10:17:59.768Z,10.28
2023-04-07T10:20:28.213Z,9.74
2023-04-07T10:22:59.276Z,9.75
2023-04-07T10:25:26.750Z,9.36
2023-04-07T10:27:59.091Z,9.43
2023-04-07T10:30:28.986Z,10.00
2023-04-07T10:32:55.970Z,9.82
2023-04-07T10:35:23.717Z,9.63
2023-04-07T10:38:08.793Z,10.07
2023-04-07T10:40:36.474Z,9.39
2023-04-07T10:43:03.823Z,8.83
2023-04-07T10:45:48.837Z,9.15
2023-04-07T10:48:17.464Z,9.11
2023-04-07T10:50:45.848Z,9.59
2023-04-07T10:53:15.338Z,9.65
2023-04-07T10:55:46.363Z,9.39
2023-04-07T10:58:14.498Z,9.82
2023-04-07T11:00:41.959Z,9.81
2023-04-07T11:03:15.039Z,9.65
2023-04-07T11:05:42.284Z,9.77
2023-04-07T11:08:09.147Z,9.99
2023-04-07T11:10:36.210Z,9.55
2023-04-07T11:13:06.362Z,9.94
2023-04-07T11:15:34.296Z,10.53
2023-04-07T11:18:11.730Z,10.48
2023-04-07T11:20:57.430Z,9.93
2023-04-07T11:23:25.503Z,9.72
2023-04-07T11:26:02.740Z,9.85
2023-04-07T11:28:30.934Z,10.59
2023-04-07T11:30:58.645Z,11.09
2023-04-07T11:33:31.507Z,10.97
2023-04-07T11:36:02.398Z,12.52
2023-04-07T11:38:34.971Z,12.57
2023-04-07T11:41:12.005Z,13.43
2023-04-07T11:43:41.783Z,14.32
2023-04-07T11:46:16.261Z,15.52
2023-04-07T11:48:45.291Z,14.31
2023-04-07T11:51:19.601Z,13.85
2023-04-07T11:53:47.798Z,12.82
2023-04-07T11:56:17.610Z,13.34
2023-04-07T11:58:55.711Z,13.17
2023-04-07T12:01:24.813Z,13.45
2023-04-07T12:04:13.527Z,13.17
2023-04-07T12:06:41.937Z,13.62
2023-04-07T12:09:30.513Z,12.66
2023-04-07T12:11:57.911Z,12.55
2023-04-07T12:14:25.760Z,12.42
2023-04-07T12:16:53.359Z,12.64
2023-04-07T12:19:20.073Z,12.61
2023-04-07T12:21:46.609Z,12.65
2023-04-07T12:24:13.186Z,13.19
2023-04-07T12:26:39.858Z,14.19
2023-04-07T12:29:07.096Z,12.70
2023-04-07T12:31:34.534Z,13.45
2023-04-07T12:34:01.496Z,13.27
2023-04-07T12:36:28.149Z,13.71
2023-04-07T12:38:54.920Z,13.13
2023-04-07T12:41:21.873Z,13.08
2023-04-07T12:43:48.790Z,13.52
2023-04-07T12:46:15.842Z,13.96
2023-04-07T12:48:42.780Z,14.17
2023-04-07T12:51:09.553Z,15.26
2023-04-07T12:53:36.295Z,14.52
2023-04-07T12:56:02.876Z,15.26
2023-04-07T12:58:29.665Z,14.33
2023-04-07T13:00:56.831Z,14.47
2023-04-07T13:03:23.668Z,14.37
2023-04-07T13:05:50.442Z,14.59
2023-04-07T13:08:17.001Z,14.45
2023-04-07T13:10:43.512Z,15.39
2023-04-07T13:13:10.310Z,16.07
2023-04-07T13:15:36.963Z,16.46
2023-04-07T13:18:03.851Z,16.36
2023-04-07T13:20:30.582Z,16.28
2023-04-07T13:23:07.795Z,16.36
2023-04-07T13:25:36.593Z,17.11
2023-04-07T13:28:03.460Z,16.73
2023-04-07T13:30:30.153Z,14.70
2023-04-07T13:32:57.224Z,14.82
2023-04-07T13:35:23.950Z,14.80
2023-04-07T13:37:50.568Z,15.12
2023-04-07T13:40:17.141Z,15.71
2023-04-07T13:42:43.703Z,14.64
2023-04-07T13:45:10.798Z,14.23
2023-04-07T13:47:37.479Z,15.66
2023-04-07T13:50:04.643Z,15.42
2023-04-07T13:52:32.941Z,14.83
2023-04-07T13:54:59.791Z,15.12
2023-04-07T13:57:26.329Z,14.28
2023-04-07T13:59:53.480Z,14.69
2023-04-07T14:02:21.234Z,15.52
2023-04-07T14:04:47.945Z,14.93
2023-04-07T14:07:14.535Z,13.99
2023-04-07T14:09:42.781Z,13.90
2023-04-07T14:12:09.544Z,14.08
2023-04-07T14:14:37.668Z,14.69
2023-04-07T14:17:04.522Z,14.64
2023-04-07T14:19:31.981Z,15.77
2023-04-07T14:21:58.749Z,15.66
2023-04-07T14:24:25.381Z,15.20
2023-04-07T14:26:54.587Z,15.23
2023-04-07T14:29:22.236Z,15.10
2023-04-07T14:31:48.751Z,15.26
2023-04-07T14:34:15.604Z,15.30
2023-04-07T14:36:42.865Z,15.16
2023-04-07T14:39:09.372Z,15.35
2023-04-07T14:41:35.892Z,14.97
2023-04-07T14:44:02.897Z,14.94
2023-04-07T14:46:29.440Z,14.84
2023-04-07T14:48:58.353Z,14.09
2023-04-07T14:51:25.019Z,14.83
2023-04-07T14:53:55.913Z,15.16
2023-04-07T14:56:22.820Z,14.62
2023-04-07T14:58:49.424Z,15.21
2023-04-07T15:01:16.079Z,14.51
2023-04-07T15:03:43.431Z,15.45
2023-04-07T15:06:11.897Z,16.02
2023-04-07T15:08:38.668Z,16.00
2023-04-07T15:11:08.571Z,15.90
2023-04-07T15:13:36.282Z,14.84
2023-04-07T15:16:13.792Z,14.49
2023-04-07T15:18:42.458Z,15.29
2023-04-07T15:21:09.801Z,14.67
2023-04-07T15:23:41.791Z,14.74
2023-04-07T15:26:09.816Z,15.13
2023-04-07T15:28:36.360Z,15.58
2023-04-07T15:31:03.805Z,14.84
2023-04-07T15:33:30.412Z,15.03
2023-04-07T15:35:57.295Z,15.83
2023-04-07T15:38:23.800Z,15.67
2023-04-07T15:40:50.396Z,15.15
2023-04-07T15:43:16.987Z,15.25
2023-04-07T15:45:44.521Z,15.67
2023-04-07T15:48:12.369Z,15.24
2023-04-07T15:50:39.216Z,16.03
2023-04-07T15:53:06.474Z,15.94
2023-04-07T15:55:37.012Z,16.51
2023-04-07T15:58:04.310Z,16.43
2023-04-07T16:00:34.031Z,15.27
2023-04-07T16:03:03.747Z,15.77
2023-04-07T16:05:30.689Z,14.93
2023-04-07T16:07:57.231Z,15.44
2023-04-07T16:10:24.361Z,15.46
2023-04-07T16:12:50.873Z,14.79
2023-04-07T16:15:32.323Z,14.18
2023-04-07T16:18:07.595Z,13.83
2023-04-07T16:20:34.299Z,14.78
2023-04-07T16:23:01.025Z,14.30
2023-04-07T16:25:27.849Z,14.25
2023-04-07T16:27:54.446Z,14.89
2023-04-07T16:30:21.070Z,15.22
2023-04-07T16:32:47.683Z,15.84
2023-04-07T16:35:15.382Z,15.95
2023-04-07T16:37:42.711Z,16.23
2023-04-07T16:40:10.493Z,15.14
2023-04-07T16:42:37.226Z,15.12
2023-04-07T16:45:04.503Z,14.17
2023-04-07T16:47:32.380Z,13.68
2023-04-07T16:49:59.428Z,13.06
2023-04-07T16:52:26.632Z,12.93
2023-04-07T16:54:53.339Z,12.14
2023-04-07T16:57:19.857Z,12.37
2023-04-07T16:59:47.234Z,12.41
2023-04-07T17:02:16.526Z,12.77
2023-04-07T17:04:44.311Z,11.86
2023-04-07T17:07:11.777Z,11.52
2023-04-07T17:09:38.956Z,11.33
2023-04-07T17:12:06.268Z,11.47
2023-04-07T17:14:33.764Z,11.35
2023-04-07T17:17:01.149Z,11.34
2023-04-07T17:19:27.987Z,10.92
2023-04-07T17:21:54.526Z,10.93
2023-04-07T17:24:21.112Z,11.22
2023-04-07T17:26:48.008Z,11.09
2023-04-07T17:29:15.748Z,11.05
2023-04-07T17:31:42.488Z,11.19
2023-04-07T17:34:09.410Z,11.08
2023-04-07T17:36:37.681Z,11.12
2023-04-07T17:39:05.085Z,11.06
2023-04-07T17:41:34.507Z,10.71
2023-04-07T17:44:01.665Z,10.91
2023-04-07T17:46:28.532Z,10.82
2023-04-07T17:48:57.600Z,10.92
2023-04-07T17:51:25.214Z,11.01
2023-04-07T17:53:53.540Z,10.65
2023-04-07T17:56:20.612Z,10.52
2023-04-07T17:58:47.583Z,10.29
2023-04-07T18:01:14.244Z,10.34
2023-04-07T18:03:41.069Z,10.28
2023-04-07T18:06:08.550Z,10.20
2023-04-07T18:08:35.583Z,10.06
2023-04-07T18:11:02.305Z,9.93
2023-04-07T18:13:28.931Z,9.82
2023-04-07T18:15:55.450Z,9.62
2023-04-07T18:18:22.179Z,9.35
2023-04-07T18:20:49.696Z,9.67
2023-04-07T18:23:16.386Z,9.56
2023-04-07T18:25:43.113Z,9.39
2023-04-07T18:28:11.796Z,9.40
2023-04-07T18:30:39.201Z,9.48
2023-04-07T18:33:05.918Z,9.15
2023-04-07T18:35:32.862Z,9.32
2023-04-07T18:37:59.468Z,9.35
2023-04-07T18:40:26.315Z,9.22
2023-04-07T18:42:53.038Z,8.92
2023-04-07T18:45:19.627Z,8.99
2023-04-07T18:47:46.475Z,8.86
2023-04-07T18:50:13.130Z,9.00
2023-04-07T18:52:39.936Z,8.94
2023-04-07T18:55:08.132Z,9.02
2023-04-07T18:57:34.873Z,8.99
2023-04-07T19:00:01.486Z,9.02
2023-04-07T19:02:28.221Z,8.90
2023-04-07T19:04:54.982Z,8.73
2023-04-07T19:07:21.548Z,8.75
2023-04-07T19:09:51.281Z,8.57
2023-04-07T19:12:17.909Z,8.33
2023-04-07T19:14:44.675Z,8.33
2023-04-07T19:17:11.838Z,8.32
2023-04-07T19:19:38.460Z,8.47
2023-04-07T19:22:05.132Z,8.62
2023-04-07T19:24:31.672Z,8.57
2023-04-07T19:26:58.455Z,8.34
2023-04-07T19:29:25.008Z,8.45
2023-04-07T19:31:53.070Z,8.25
2023-04-07T19:34:19.853Z,8.17
2023-04-07T19:36:46.396Z,8.29
2023-04-07T19:39:12.945Z,8.24
2023-04-07T19:41:39.560Z,8.13
2023-04-07T19:44:06.127Z,8.36
2023-04-07T19:46:33.717Z,8.27
2023-04-07T19:49:00.411Z,8.34
2023-04-07T19:51:27.659Z,8.18
2023-04-07T19:53:54.302Z,8.54
2023-04-07T19:56:21.502Z,8.59
2023-04-07T19:58:48.316Z,8.71
2023-04-07T20:01:18.550Z,8.73
2023-04-07T20:03:46.322Z,8.36
2023-04-07T20:06:14.688Z,8.43
2023-04-07T20:08:41.986Z,8.56
2023-04-07T20:11:11.558Z,8.47
2023-04-07T20:13:39.431Z,8.49
2023-04-07T20:16:06.456Z,8.44
2023-04-07T20:18:33.469Z,8.75
2023-04-07T20:21:01.116Z,8.62
2023-04-07T20:23:27.973Z,8.56
2023-04-07T20:25:54.751Z,8.93
2023-04-07T20:28:22.067Z,8.80
2023-04-07T20:30:48.737Z,8.96
2023-04-07T20:33:15.580Z,8.82
2023-04-07T20:35:42.181Z,9.01
2023-04-07T20:38:08.808Z,8.83
2023-04-07T20:40:36.961Z,8.64
2023-04-07T20:43:04.738Z,8.57
2023-04-07T20:45:32.317Z,8.54
2023-04-07T20:47:58.869Z,8.49
2023-04-07T20:50:25.907Z,8.51
2023-04-07T20:52:53.960Z,8.38
2023-04-07T20:55:21.000Z,8.45
2023-04-07T20:57:47.667Z,8.65
2023-04-07T21:00:15.419Z,8.53
2023-04-07T21:02:43.082Z,8.61
2023-04-07T21:05:09.955Z,8.72
2023-04-07T21:07:36.518Z,8.74
2023-04-07T21:10:04.078Z,8.61
2023-04-07T21:12:30.775Z,8.61
2023-04-07T21:14:57.384Z,8.48
2023-04-07T21:17:23.959Z,8.58
2023-04-07T21:19:51.452Z,8.45
2023-04-07T21:22:18.143Z,8.46
2023-04-07T21:24:44.732Z,8.53
2023-04-07T21:27:12.228Z,8.62
2023-04-07T21:29:41.119Z,8.63
2023-04-07T21:32:08.622Z,8.69
2023-04-07T21:34:35.169Z,8.71
2023-04-07T21:37:01.817Z,8.62
2023-04-07T21:39:28.374Z,8.46
2023-04-07T21:41:54.924Z,8.73
2023-04-07T21:44:21.657Z,8.38
2023-04-07T21:46:48.850Z,8.56
2023-04-07T21:49:18.014Z,8.68
2023-04-07T21:51:44.673Z,8.61
2023-04-07T21:54:12.430Z,8.59
2023-04-07T21:56:38.995Z,8.48
2023-04-07T21:59:05.928Z,8.56
2023-04-07T22:01:32.564Z,8.65
2023-04-07T22:03:59.326Z,8.93
2023-04-07T22:06:26.751Z,8.88
2023-04-07T22:09:01.064Z,8.68
2023-04-07T22:11:28.655Z,8.43
2023-04-07T22:13:55.282Z,8.50
2023-04-07T22:16:21.892Z,8.45
2023-04-07T22:18:48.687Z,8.42
2023-04-07T22:21:15.412Z,8.57
2023-04-07T22:23:41.955Z,8.77
2023-04-07T22:26:08.607Z,8.86
2023-04-07T22:28:35.282Z,8.74
2023-04-07T22:31:02.430Z,8.70
2023-04-07T22:33:29.113Z,8.88
2023-04-07T22:35:55.745Z,8.98
2023-04-07T22:38:23.099Z,8.84
2023-04-07T22:40:49.776Z,8.70
2023-04-07T22:43:16.321Z,8.54
2023-04-07T22:45:42.907Z,8.50
2023-04-07T22:48:09.497Z,8.27
2023-04-07T22:50:36.506Z,8.35
2023-04-07T22:53:03.095Z,8.41
2023-04-07T22:55:29.752Z,8.47
2023-04-07T22:57:56.313Z,8.16
2023-04-07T23:00:22.910Z,8.19
2023-04-07T23:02:49.555Z,8.15
2023-04-07T23:05:16.269Z,8.19
2023-04-07T23:07:43.870Z,8.23
2023-04-07T23:10:10.935Z,8.28
2023-04-07T23:12:37.977Z,8.30
2023-04-07T23:15:05.172Z,8.33
2023-04-07T23:17:32.269Z,8.32
2023-04-07T23:19:58.920Z,8.29
2023-04-07T23:22:25.702Z,8.20
2023-04-07T23:24:52.323Z,8.30
2023-04-07T23:27:18.822Z,8.65
2023-04-07T23:29:45.426Z,8.48
2023-04-07T23:32:12.601Z,8.72
2023-04-07T23:34:40.042Z,8.67
2023-04-07T23:37:06.856Z,8.41
2023-04-07T23:39:34.315Z,8.48
2023-04-07T23:42:00.845Z,8.57
2023-04-07T23:44:27.492Z,8.61
2023-04-07T23:46:54.065Z,8.37
2023-04-07T23:49:20.609Z,8.44
2023-04-07T23:51:47.167Z,8.62
2023-04-07T23:54:13.993Z,8.67
2023-04-07T23:56:40.553Z,8.65
2023-04-07T23:59:07.168Z,8.56
